Pagina principale
METAR-TAF:

METAR-TAF

Aeroporti :

Montichiari

Brescia, Italia

latitudine: 45-24-02N, longitudine: 010-18-59E, altezza: 104 m

Osservazione

Il bollettino è stato emesso 35 minuti fa, alle 16:50 UTC
Vento 3 kt da ovest
Temperature 30°C
Umidità 40%
Pressione 1015 hPa
Visibilità 10 km o più
nessuna nube inferiore a 1500 m e nessun cumulonembo

METAR: LIPO 191650Z 27003KT CAVOK 30/15 Q1015

Ora: 19:25 (17:25 UTC)

Previsione

Il bollettino è stato emesso 6 ore e 25 minuti fa, alle 11:00 UTC
Previsione valida dal 19 alle 12 UTC al 20 alle 12 UTC
Vento 5 kt da direzioni variabili
Visibilità 10 km o più
nessuna nube inferiore a 1500 m e nessun cumulonembo

TAF: LIPO 191100Z 1912/2012 VRB05KT CAVOK

Osservazioni e previsioni meteorologiche di più di 4000 aeroporti (messaggi METAR e TAF).

Le stazioni disponibili sono rappresentate dai dischi gialli e rossi sulla carta.

Puntare il mouse per vedere il nome della stazione.

Clicca sopra per visualizzare le osservazioni e previsioni meteorologiche.

Per cambiare la mappa : fare clic sui pulsanti verdi con una croce nera per ingrandire, il pulsante verde con un trattino per diminuire, o sulla freccia verde per le mappe adiacenti.


METAR-TAF: